Impacts TAF Board
For situational awareness. Not to be used for flight planning purposes.
IDs:

KPDX - Portland Intl Arpt, OR, US

Issued at 0540 UTC 24 Jan 2019
Updated at 0605 UTC 24 Jan 2019
Potential Impact None Slight Moderate High
Time<<24/19Z 24/20Z 24/21Z 24/22Z 24/23Z 25/00Z 25/01Z 25/02Z 25/03Z 25/04Z 25/05Z 25/06Z 25/07Z>>
Type PRVL PRVL PRVL PRVL PRVL PRVL PRVL PRVL PRVL PRVL PRVL
VIS >6 >6 >6 >6 >6 >6 >6 >6 >6 >6 >6
CIG 20 20 20 -- -- -- -- -- -- -- --
Cover OVC BKN BKN SCT SCT SCT SCT SCT SCT SCT SCT
FltCat MVFR MVFR MVFR VFR VFR VFR VFR VFR VFR VFR VFR
WX -- -- -- -- -- -- -- -- -- -- --
WDir VRB 290 290 330 330 330 330 330 330 330 330
WSpd 3 4 4 6 6 6 6 6 6 6 6
WGst -- -- -- -- -- -- -- -- -- -- --
Raw TAF
KPDX 240540Z 2406/2506 23004KT P6SM SCT020 BKN045
  FM241000 VRB03KT P6SM BKN020 OVC035
  FM242000 29004KT P6SM BKN020
  FM242200 33006KT P6SM SCT025


METAR Board
Radar Display
Forecast Discussion
For situational awareness. Not to be used for flight planning purposes.